Latest Weather Observations for Port Fairy

IDV60801

Issued at 6:22 pm EDT Monday 5 December 2022 (issued every 10 minutes, with the page automatically refreshed every 10 minutes)

About weather observations | Map of weather stations | Latest weather observations for VIC | Other Formats
Station Details ID: 090175 Name: PORT FAIRY AWS Lat: -38.39 Lon: 142.23 Height: 10.0 m
Data from the previous 72 hours. | See also: Recent months at Port Fairy
Date/Time
EDT
Temp
°C
App
Temp
°C
Dew
Point
°C
Rel
Hum
%
Delta-T
°C
Wind Press
QNH
hPa
Press
MSL
hPa
Rain since
9am
mm
Dir  Spd
km/h
Gust
km/h
Spd
kts
Gust
kts
05/06:00pm 14.6 9.9 9.4 71 2.7 S 24 37 13 20 1015.7 1015.7 0.0
05/05:30pm 15.1 10.7 8.8 66 3.2 S 22 33 12 18 1015.8 1015.8 0.0
05/05:00pm 15.6 10.5 9.3 66 3.2 S 26 37 14 20 1015.8 1015.8 0.0
05/04:30pm 15.2 10.4 8.9 66 3.2 S 24 35 13 19 1015.8 1015.8 0.0
05/04:00pm 16.1 11.6 8.6 61 3.8 S 22 35 12 19 1015.9 1015.9 0.0
05/03:30pm 16.4 11.8 8.1 58 4.2 S 22 37 12 20 1016.0 1016.0 0.0
05/03:00pm 15.6 11.1 8.6 63 3.6 S 22 32 12 17 1015.9 1015.9 0.0
05/02:30pm 16.3 11.0 8.3 59 4.1 SSW 26 41 14 22 1015.9 1015.9 0.0
05/02:00pm 17.1 12.2 8.5 57 4.4 S 24 35 13 19 1015.8 1015.8 0.0
05/01:30pm 15.5 10.3 9.0 65 3.3 S 26 37 14 20 1015.8 1015.8 0.0
05/01:00pm 15.8 10.9 8.5 62 3.7 S 24 35 13 19 1015.7 1015.7 0.0
05/12:30pm 15.8 10.8 8.1 60 3.9 S 24 39 13 21 1015.5 1015.5 0.0
05/12:00pm 15.1 8.9 7.9 62 3.6 S 30 46 16 25 1015.4 1015.4 0.0
05/11:53am 15.1 9.4 8.3 64 3.4 S 28 46 15 25 1015.3 1015.3 0.0
05/11:30am 14.7 8.5 8.0 64 3.3 S 30 44 16 24 1015.1 1015.1 0.0
05/11:00am 14.4 8.6 9.6 73 2.5 S 30 43 16 23 1014.7 1014.7 0.0
05/10:30am 14.1 8.0 9.9 76 2.2 S 32 46 17 25 1014.6 1014.6 0.0
05/10:00am 14.6 9.2 9.6 72 2.6 S 28 41 15 22 1014.3 1014.3 0.0
05/09:30am 14.8 9.8 10.8 77 2.1 S 28 44 15 24 1014.2 1014.2 0.0
05/09:00am 14.4 8.3 9.8 74 2.4 S 32 44 17 24 1013.9 1013.9 0.0
05/08:30am 14.3 9.2 10.7 79 1.9 S 28 46 15 25 1013.6 1013.6 0.0
05/08:00am 14.5 8.4 10.3 76 2.2 S 33 48 18 26 1013.2 1013.2 0.0
05/07:30am 14.0 7.8 10.2 78 2.0 S 33 48 18 26 1013.0 1013.0 0.0
05/07:00am 14.2 8.6 10.0 76 2.2 S 30 52 16 28 1012.6 1012.6 0.0
05/06:59am 14.4 9.0 10.8 79 1.9 S 30 52 16 28 1012.6 1012.6 0.0
05/06:30am 14.5 8.7 10.9 79 1.9 S 32 43 17 23 1012.4 1012.4 0.0
05/06:08am 14.4 8.5 11.0 80 1.8 S 33 52 18 28 1012.1 1012.1 0.0
05/06:00am 14.5 8.6 11.1 80 1.8 S 33 46 18 25 1011.9 1011.9 0.0
05/05:31am 14.8 9.7 10.6 76 2.2 S 28 52 15 28 1011.5 1011.5 0.0
05/05:30am 14.9 9.9 10.9 77 2.1 S 28 43 15 23 1011.5 1011.5 0.0
05/05:00am 14.4 9.6 11.6 83 1.5 S 28 48 15 26 1011.1 1011.1 0.0
05/04:47am 15.2 10.0 11.6 79 1.9 S 30 50 16 27 1010.9 1010.9 0.0
05/04:30am 14.8 9.0 10.8 77 2.1 S 32 44 17 24 1010.6 1010.6 0.0
05/04:00am 15.1 10.6 11.5 79 1.9 S 26 37 14 20 1010.4 1010.4 0.0
05/03:31am 14.7 8.6 10.3 75 2.3 S 33 52 18 28 1010.2 1010.2 0.0
05/03:30am 14.7 8.6 10.5 76 2.2 S 33 48 18 26 1010.2 1010.2 0.0
05/03:20am 14.9 9.2 11.7 81 1.7 SSW 33 54 18 29 1010.1 1010.1 0.0
05/03:00am 14.7 9.5 11.7 82 1.6 S 30 43 16 23 1010.1 1010.1 0.0
05/02:30am 14.4 9.2 12.8 90 0.9 SSW 32 46 17 25 1009.5 1009.5 0.0
05/02:00am 15.3 11.1 13.5 89 1.0 SSW 28 41 15 22 1009.3 1009.3 0.0
05/01:30am 15.6 11.1 13.8 89 1.0 SSW 30 41 16 22 1009.1 1009.1 0.0
05/01:00am 15.8 10.9 13.8 88 1.1 SW 32 43 17 23 1009.2 1009.2 0.0
05/12:30am 16.2 12.7 14.4 89 1.0 SW 26 33 14 18 1008.9 1008.9 0.0
05/12:00am 16.1 13.2 14.1 88 1.1 SW 22 30 12 16 1008.9 1008.9 0.0
 
Date/Time
EDT
Temp
°C
App
Temp
°C
Dew
Point
°C
Rel
Hum
%
Delta-T
°C
Wind Press
QNH
hPa
Press
MSL
hPa
Rain since
9am
mm
Dir  Spd
km/h
Gust
km/h
Spd
kts
Gust
kts
04/11:30pm 16.2 12.2 14.2 88 1.1 W 28 39 15 21 1008.9 1008.9 0.0
04/11:00pm 16.3 11.9 14.1 87 1.3 W 30 43 16 23 1008.5 1008.5 0.0
04/10:30pm 16.2 11.4 14.0 87 1.2 W 32 46 17 25 1008.2 1008.2 0.0
04/10:26pm 16.3 12.3 14.1 87 1.2 W 28 46 15 25 1008.2 1008.2 0.0
04/10:00pm 16.3 11.9 14.0 86 1.3 W 30 43 16 23 1007.9 1007.9 0.0
04/09:30pm 16.4 11.6 14.1 86 1.3 W 32 46 17 25 1007.7 1007.7 0.0
04/09:00pm 16.4 11.6 14.1 86 1.3 W 32 46 17 25 1007.4 1007.4 0.0
04/08:32pm 16.4 11.6 14.1 86 1.3 W 32 52 17 28 1007.1 1007.1 0.0
04/08:30pm 16.5 11.8 14.3 87 1.3 W 32 46 17 25 1007.0 1007.0 0.0
04/08:00pm 17.1 12.4 14.9 87 1.3 W 33 52 18 28 1006.7 1006.7 0.0
04/07:58pm 17.1 12.5 14.7 86 1.4 W 32 52 17 28 1006.6 1006.6 0.0
04/07:30pm 17.8 13.8 15.2 85 1.5 WSW 30 43 16 23 1006.2 1006.2 0.0
04/07:00pm 19.0 16.2 15.3 79 2.2 WSW 24 33 13 18 1006.2 1006.2 0.0
04/06:30pm 19.4 17.5 15.3 77 2.4 W 19 32 10 17 1006.1 1006.1 0.0
04/06:00pm 22.3 20.5 15.6 66 4.0 WSW 19 26 10 14 1006.1 1006.1 0.0
04/05:47pm 22.9 20.8 14.7 60 4.9 SW 19 30 10 16 1006.1 1006.1 0.0
04/05:30pm 28.1 26.1 11.6 36 9.5 WNW 13 24 7 13 1005.4 1005.4 0.0
04/05:00pm 29.2 28.8 14.2 40 9.1 NW 9 19 5 10 1005.6 1005.6 0.0
04/04:30pm 24.8 25.7 16.2 58 5.3 W 6 13 3 7 1006.4 1006.4 0.0
04/04:00pm 23.7 24.0 14.9 57 5.3 W 7 15 4 8 1006.6 1006.6 0.0
04/03:30pm 23.3 23.9 15.4 61 4.7 WSW 6 11 3 6 1006.9 1006.9 0.0
04/03:00pm 23.7 23.8 15.5 60 4.9 SW 9 13 5 7 1007.2 1007.2 0.0
04/02:30pm 24.9 24.0 15.8 57 5.5 SW 15 22 8 12 1007.8 1007.8 0.0
04/02:00pm 27.4 27.3 16.1 50 7.0 SW 11 20 6 11 1007.9 1007.9 0.0
04/01:30pm 29.2 29.2 14.2 40 9.0 SW 7 13 4 7 1008.0 1008.0 0.0
04/01:00pm 31.2 30.1 14.4 36 10.2 W 13 28 7 15 1008.1 1008.1 0.0
04/12:30pm 31.8 29.9 13.1 32 11.2 NNW 15 26 8 14 1008.4 1008.4 0.0
04/12:00pm 30.1 29.5 14.6 38 9.4 NW 11 24 6 13 1008.7 1008.7 0.0
04/11:58am 29.8 29.6 14.7 39 9.2 NW 9 24 5 13 1008.7 1008.7 0.0
04/11:30am 24.6 26.3 16.1 59 5.2 SW 2 9 1 5 1008.9 1008.9 0.0
04/11:00am 22.9 24.8 16.7 68 3.8 S 2 6 1 3 1009.1 1009.1 0.0
04/10:30am 20.8 21.2 14.7 68 3.6 SSW 6 9 3 5 1009.1 1009.1 0.0
04/10:00am 21.3 22.1 14.9 67 3.8 SSW 4 7 2 4 1009.4 1009.4 0.0
04/09:30am 22.3 22.9 15.9 67 3.9 SW 7 9 4 5 1009.7 1009.7 0.0
04/09:00am 22.8 23.7 17.5 72 3.3 NNW 9 19 5 10 1009.3 1009.3 0.0
04/08:30am 20.4 20.9 15.0 71 3.2 NNW 6 9 3 5 1009.2 1009.2 0.0
04/08:00am 17.2 17.2 13.5 79 2.1 W 6 9 3 5 1009.7 1009.7 0.0
04/07:30am 15.2 14.4 11.8 80 1.8 N 7 11 4 6 1008.8 1008.8 0.0
04/07:00am 14.2 14.4 11.7 85 1.3 WNW 2 4 1 2 1009.3 1009.3 0.0
04/06:30am 14.1 13.4 11.4 84 1.4 NNW 6 7 3 4 1009.3 1009.3 0.0
04/06:00am 14.7 14.1 12.2 85 1.4 N 7 11 4 6 1009.1 1009.1 0.0
04/05:30am 15.1 13.7 12.1 82 1.6 NE 11 15 6 8 1009.0 1009.0 0.0
04/05:00am 15.9 14.2 12.5 80 1.9 NE 13 19 7 10 1009.2 1009.2 0.0
04/04:30am 15.6 13.3 11.8 78 2.1 NE 15 22 8 12 1009.2 1009.2 0.0
04/04:00am 15.7 14.0 12.6 82 1.7 NE 13 17 7 9 1009.7 1009.7 0.0
04/03:30am 14.5 14.0 12.7 89 1.0 NE 7 9 4 5 1010.4 1010.4 0.0
04/03:00am 14.7 14.4 13.2 91 0.8 NE 7 9 4 5 1010.8 1010.8 0.0
04/02:30am 14.2 14.0 13.1 93 0.6 ENE 6 7 3 4 1011.3 1011.3 0.0
04/02:00am 14.2 14.4 13.1 93 0.6 ESE 4 6 2 3 1011.9 1011.9 0.0
04/01:30am 14.3 13.9 13.0 92 0.7 WSW 7 9 4 5 1012.5 1012.5 0.0
04/01:00am 13.7 13.5 11.8 88 1.0 N 4 6 2 3 1012.7 1012.7 0.0
04/12:30am 15.3 15.7 13.7 90 0.9 NNE 4 6 2 3 1012.8 1012.8 0.0
04/12:00am 15.7 15.8 14.4 92 0.7 NE 7 7 4 4 1013.1 1013.1 0.0
 
Date/Time
EDT
Temp
°C
App
Temp
°C
Dew
Point
°C
Rel
Hum
%
Delta-T
°C
Wind Press
QNH
hPa
Press
MSL
hPa
Rain since
9am
mm
Dir  Spd
km/h
Gust
km/h
Spd
kts
Gust
kts
03/11:30pm 14.9 15.3 13.8 93 0.6 NE 4 4 2 2 1013.5 1013.5 0.0
03/11:00pm 14.7 15.5 13.6 93 0.6 SE 2 4 1 2 1013.5 1013.5 0.0
03/10:30pm 14.5 15.1 13.0 91 0.8 SE 2 4 1 2 1013.5 1013.5 0.0
03/10:00pm 14.8 15.0 13.0 89 1.0 ESE 4 4 2 2 1013.4 1013.4 0.0
03/09:30pm 15.6 16.0 13.6 88 1.1 SSE 4 6 2 3 1013.2 1013.2 0.0
03/09:00pm 16.6 17.1 14.1 85 1.4 SE 4 6 2 3 1013.2 1013.2 0.0
03/08:30pm 18.1 19.3 15.0 82 1.8 E 2 6 1 3 1013.0 1013.0 0.0
03/08:00pm 19.2 19.8 15.3 78 2.3 ESE 6 9 3 5 1012.9 1012.9 0.0
03/07:30pm 20.0 20.6 15.2 74 2.8 ESE 6 11 3 6 1012.9 1012.9 0.0
03/07:00pm 20.6 21.4 15.8 74 2.9 SSE 6 9 3 5 1012.9 1012.9 0.0
03/06:30pm 20.9 21.5 15.9 73 3.0 SE 7 11 4 6 1012.9 1012.9 0.0
03/06:00pm 21.1 21.2 15.6 71 3.3 ESE 9 11 5 6 1012.8 1012.8 0.0
03/05:30pm 21.4 21.7 15.9 71 3.3 E 9 13 5 7 1012.9 1012.9 0.0
03/05:00pm 21.5 22.1 16.7 74 2.9 ESE 9 15 5 8 1013.0 1013.0 0.0
03/04:30pm 21.6 21.9 16.1 71 3.3 ESE 9 15 5 8 1013.2 1013.2 0.0
03/04:00pm 21.8 21.9 15.6 68 3.7 ESE 9 15 5 8 1013.3 1013.3 0.0
03/03:30pm 22.1 22.0 15.9 68 3.7 ESE 11 17 6 9 1013.5 1013.5 0.0
03/03:00pm 21.9 21.7 15.7 68 3.7 SE 11 17 6 9 1013.8 1013.8 0.0
03/02:30pm 21.7 21.5 15.8 69 3.5 SE 11 17 6 9 1014.0 1014.0 0.0
03/02:00pm 21.5 21.0 15.8 70 3.4 SE 13 17 7 9 1014.2 1014.2 0.0
03/01:30pm 21.0 20.2 15.1 69 3.5 SE 13 17 7 9 1014.4 1014.4 0.0
03/01:00pm 21.3 20.8 15.8 71 3.3 SE 13 17 7 9 1014.6 1014.6 0.0
03/12:30pm 21.6 21.6 15.2 67 3.8 SSE 9 13 5 7 1014.6 1014.6 0.0
03/12:00pm 21.3 21.8 15.6 70 3.4 S 7 11 4 6 1014.8 1014.8 0.0
03/11:30am 20.7 21.3 15.3 71 3.2 S 6 9 3 5 1014.8 1014.8 0.0
03/11:00am 20.7 21.2 15.0 70 3.4 SSE 6 7 3 4 1014.9 1014.9 0.0
03/10:30am 20.7 21.4 15.5 72 3.1 SE 6 9 3 5 1015.0 1015.0 0.0
03/10:00am 20.2 21.1 15.2 73 2.9 E 4 7 2 4 1015.1 1015.1 0.0
03/09:30am 18.4 19.2 13.7 74 2.7 NE 2 6 1 3 1015.1 1015.1 0.0
03/09:00am 17.5 18.7 13.8 79 2.1 CALM 0 0 0 0 1015.1 1015.1 0.0
03/08:30am 16.3 16.9 13.2 82 1.7 SE 2 4 1 2 1014.9 1014.9 0.0
03/08:00am 15.5 16.8 14.0 91 0.8 CALM 0 0 0 0 1014.6 1014.6 0.0
03/07:30am 14.4 15.5 13.4 94 0.6 CALM 0 0 0 0 1014.5 1014.5 0.0
03/07:00am 12.8 12.7 12.0 95 0.4 NE 4 6 2 3 1014.1 1014.1 0.0
03/06:30am 9.9 9.3 9.0 94 0.4 NE 2 4 1 2 1014.0 1014.0 0.0
03/06:00am 10.2 9.3 9.3 94 0.4 NNE 4 6 2 3 1013.8 1013.8 0.0
03/05:30am 10.4 9.2 9.5 94 0.4 NNE 6 7 3 4 1013.7 1013.7 0.0
03/05:00am 10.8 10.1 9.9 94 0.5 NNE 4 6 2 3 1013.7 1013.7 0.0
03/04:30am 11.1 10.4 10.2 94 0.5 NNE 4 7 2 4 1013.6 1013.6 0.0
03/04:00am 11.4 10.3 10.6 95 0.4 NNE 7 11 4 6 1013.8 1013.8 0.0
03/03:30am 11.4 10.3 10.6 95 0.4 NNE 7 9 4 5 1014.2 1014.2 0.0
03/03:00am 10.7 9.6 9.8 94 0.5 N 6 7 3 4 1014.5 1014.5 0.0
03/02:30am 10.5 9.7 9.6 94 0.5 N 4 6 2 3 1014.7 1014.7 0.0
03/02:00am 10.9 9.8 10.0 94 0.5 N 6 6 3 3 1014.9 1014.9 0.0
03/01:30am 11.6 10.5 10.7 94 0.5 N 7 7 4 4 1015.1 1015.1 0.0
03/01:00am 12.1 11.2 11.2 94 0.5 N 7 9 4 5 1015.5 1015.5 0.0
03/12:30am 12.6 12.3 11.3 92 0.7 N 4 7 2 4 1015.7 1015.7 0.0
03/12:00am 14.4 14.3 13.3 93 0.6 NE 6 7 3 4 1015.9 1015.9 0.0
 
Date/Time
EDT
Temp
°C
App
Temp
°C
Dew
Point
°C
Rel
Hum
%
Delta-T
°C
Wind Press
QNH
hPa
Press
MSL
hPa
Rain since
9am
mm
Dir  Spd
km/h
Gust
km/h
Spd
kts
Gust
kts
02/11:30pm 14.5 14.4 13.2 92 0.7 ENE 6 9 3 5 1016.0 1016.0 0.0
02/11:00pm 14.4 14.2 13.1 92 0.7 E 6 9 3 5 1016.2 1016.2 0.0
02/10:30pm 14.5 14.1 13.0 91 0.8 ESE 7 9 4 5 1016.3 1016.3 0.0
02/10:00pm 14.4 13.9 12.8 90 0.9 ESE 7 9 4 5 1016.3 1016.3 0.0
02/09:30pm 14.7 13.9 12.9 89 1.0 ESE 9 11 5 6 1016.2 1016.2 0.0
02/09:00pm 14.8 13.9 12.5 86 1.3 ESE 9 13 5 7 1016.1 1016.1 0.0
02/08:30pm 15.1 13.8 12.6 85 1.4 ESE 11 17 6 9 1016.1 1016.1 0.0
02/08:00pm 15.5 14.2 12.4 82 1.7 SE 11 17 6 9 1016.0 1016.0 0.0
02/07:30pm 16.3 14.4 11.9 75 2.4 SE 13 17 7 9 1015.9 1015.9 0.0
02/07:00pm 16.8 14.9 11.9 73 2.7 SE 13 19 7 10 1015.8 1015.8 0.0
02/06:30pm 17.1 14.9 12.0 72 2.8 SE 15 20 8 11 1015.8 1015.8 0.0

Other formats

Comma delimited format used in spreadsheet applications
http://www.bom.gov.au/fwo/IDV60801/IDV60801.94830.axf

JavaScript Object Notation format (JSON) in row-major order
http://www.bom.gov.au/fwo/IDV60801/IDV60801.94830.json

Data quality

Most of these data are generated automatically and are frequently updated. Quality checks on data are not normally performed. It is possible for incorrect values to appear. Refer to information at About Latest Weather Observations and please check the disclaimer before using these data.